sensor_id;sensor_type;location;lat;lon;timestamp;pressure;altitude;pressure_sealevel;temperature;humidity
29907;BME280;16776;50.958;10.994;2024-03-23T00:55:35;97662.25;;;8.56;94.59
29907;BME280;16776;50.958;10.994;2024-03-23T00:58:01;97659.03;;;8.50;95.56
29907;BME280;16776;50.958;10.994;2024-03-23T01:00:27;97659.19;;;8.45;95.77
29907;BME280;16776;50.958;10.994;2024-03-23T01:02:59;97664.31;;;8.45;96.00
29907;BME280;16776;50.958;10.994;2024-03-23T01:05:25;97639.03;;;8.35;94.92
29907;BME280;16776;50.958;10.994;2024-03-23T01:07:51;97636.53;;;8.32;95.31
29907;BME280;16776;50.958;10.994;2024-03-23T01:10:17;97641.78;;;8.29;94.83
29907;BME280;16776;50.958;10.994;2024-03-23T01:12:45;97634.97;;;8.28;95.25
29907;BME280;16776;50.958;10.994;2024-03-23T01:15:11;97640.28;;;8.23;95.14
29907;BME280;16776;50.958;10.994;2024-03-23T01:17:38;97624.13;;;8.19;96.11
29907;BME280;16776;50.958;10.994;2024-03-23T01:20:04;97630.19;;;8.18;95.81
29907;BME280;16776;50.958;10.994;2024-03-23T01:22:31;97632.78;;;8.17;96.05
29907;BME280;16776;50.958;10.994;2024-03-23T01:24:57;97628.50;;;8.17;96.38
29907;BME280;16776;50.958;10.994;2024-03-23T01:27:23;97613.03;;;8.19;96.56
29907;BME280;16776;50.958;10.994;2024-03-23T01:29:50;97613.78;;;8.22;96.63
29907;BME280;16776;50.958;10.994;2024-03-23T01:32:17;97604.41;;;8.21;96.14
29907;BME280;16776;50.958;10.994;2024-03-23T01:34:43;97584.72;;;8.22;96.80
29907;BME280;16776;50.958;10.994;2024-03-23T01:37:10;97578.75;;;8.21;96.12
29907;BME280;16776;50.958;10.994;2024-03-23T01:39:36;97577.94;;;8.21;95.68
29907;BME280;16776;50.958;10.994;2024-03-23T01:42:03;97576.31;;;8.18;96.09
29907;BME280;16776;50.958;10.994;2024-03-23T01:44:29;97572.06;;;8.17;95.95
29907;BME280;16776;50.958;10.994;2024-03-23T01:46:57;97568.63;;;8.18;96.27
29907;BME280;16776;50.958;10.994;2024-03-23T01:49:22;97555.09;;;8.13;96.45
29907;BME280;16776;50.958;10.994;2024-03-23T01:51:50;97556.88;;;8.11;96.22
29907;BME280;16776;50.958;10.994;2024-03-23T01:54:16;97558.59;;;8.11;95.99
29907;BME280;16776;50.958;10.994;2024-03-23T01:56:42;97555.19;;;8.10;97.07
29907;BME280;16776;50.958;10.994;2024-03-23T01:59:08;97560.34;;;8.09;95.64
29907;BME280;16776;50.958;10.994;2024-03-23T02:01:35;97555.28;;;8.07;96.14
29907;BME280;16776;50.958;10.994;2024-03-23T02:04:02;97555.22;;;8.09;96.90
29907;BME280;16776;50.958;10.994;2024-03-23T02:06:29;97556.22;;;8.05;96.69
29907;BME280;16776;50.958;10.994;2024-03-23T02:08:55;97537.53;;;8.01;96.28
29907;BME280;16776;50.958;10.994;2024-03-23T02:11:21;97538.34;;;8.03;96.47
29907;BME280;16776;50.958;10.994;2024-03-23T02:13:47;97535.78;;;8.03;96.81
29907;BME280;16776;50.958;10.994;2024-03-23T02:16:14;97532.38;;;8.03;96.05
29907;BME280;16776;50.958;10.994;2024-03-23T02:18:39;97531.47;;;8.04;96.74
29907;BME280;16776;50.958;10.994;2024-03-23T02:21:07;97537.38;;;8.06;97.22
29907;BME280;16776;50.958;10.994;2024-03-23T02:23:34;97535.59;;;8.08;97.10
29907;BME280;16776;50.958;10.994;2024-03-23T02:26:00;97536.50;;;8.07;98.13
29907;BME280;16776;50.958;10.994;2024-03-23T02:28:26;97530.47;;;8.08;97.78
29907;BME280;16776;50.958;10.994;2024-03-23T02:30:53;97527.03;;;8.09;96.93
29907;BME280;16776;50.958;10.994;2024-03-23T02:33:18;97514.16;;;8.10;97.84
29907;BME280;16776;50.958;10.994;2024-03-23T02:35:45;97524.38;;;8.12;96.77
29907;BME280;16776;50.958;10.994;2024-03-23T02:38:10;97505.53;;;8.13;96.62
29907;BME280;16776;50.958;10.994;2024-03-23T02:40:38;97491.78;;;8.15;97.16
29907;BME280;16776;50.958;10.994;2024-03-23T02:43:04;97496.97;;;8.14;97.57
29907;BME280;16776;50.958;10.994;2024-03-23T02:45:31;97491.78;;;8.15;96.67
29907;BME280;16776;50.958;10.994;2024-03-23T02:47:56;97507.16;;;8.15;97.27
29907;BME280;16776;50.958;10.994;2024-03-23T02:50:23;97486.22;;;8.03;96.92
29907;BME280;16776;50.958;10.994;2024-03-23T02:52:48;97503.81;;;8.13;96.64
29907;BME280;16776;50.958;10.994;2024-03-23T02:55:15;97476.88;;;8.00;96.99
29907;BME280;16776;50.958;10.994;2024-03-23T02:57:42;97480.91;;;8.07;97.01
29907;BME280;16776;50.958;10.994;2024-03-23T03:00:09;97469.28;;;7.99;96.15
29907;BME280;16776;50.958;10.994;2024-03-23T03:02:36;97464.41;;;7.91;96.40
29907;BME280;16776;50.958;10.994;2024-03-23T03:05:03;97456.09;;;7.84;96.59
29907;BME280;16776;50.958;10.994;2024-03-23T03:07:30;97446.81;;;7.80;97.08
29907;BME280;16776;50.958;10.994;2024-03-23T03:09:56;97437.53;;;7.78;97.19
29907;BME280;16776;50.958;10.994;2024-03-23T03:12:22;97434.16;;;7.76;98.09
29907;BME280;16776;50.958;10.994;2024-03-23T03:14:50;97437.53;;;7.78;97.17
29907;BME280;16776;50.958;10.994;2024-03-23T03:17:16;97431.59;;;7.76;97.33
29907;BME280;16776;50.958;10.994;2024-03-23T03:19:42;97411.94;;;7.76;97.67
29907;BME280;16776;50.958;10.994;2024-03-23T03:22:08;97411.91;;;7.78;97.51
29907;BME280;16776;50.958;10.994;2024-03-23T03:24:34;97407.56;;;7.80;97.57
29907;BME280;16776;50.958;10.994;2024-03-23T03:27:00;97404.88;;;7.83;97.60
29907;BME280;16776;50.958;10.994;2024-03-23T03:29:28;97405.66;;;7.85;97.78
29907;BME280;16776;50.958;10.994;2024-03-23T03:32:02;97403.78;;;7.90;97.76
29907;BME280;16776;50.958;10.994;2024-03-23T03:34:28;97396.88;;;7.92;98.92
29907;BME280;16776;50.958;10.994;2024-03-23T03:36:54;97398.47;;;7.95;98.79
29907;BME280;16776;50.958;10.994;2024-03-23T03:39:20;97389.84;;;7.97;98.32
29907;BME280;16776;50.958;10.994;2024-03-23T03:41:47;97405.09;;;8.00;98.49
29907;BME280;16776;50.958;10.994;2024-03-23T03:44:14;97393.03;;;8.04;98.03
29907;BME280;16776;50.958;10.994;2024-03-23T03:46:40;97382.72;;;8.05;98.14
29907;BME280;16776;50.958;10.994;2024-03-23T03:49:07;97382.53;;;8.10;98.79
29907;BME280;16776;50.958;10.994;2024-03-23T03:51:33;97384.22;;;8.11;98.55
29907;BME280;16776;50.958;10.994;2024-03-23T03:54:00;97390.16;;;8.13;98.61
29907;BME280;16776;50.958;10.994;2024-03-23T03:56:25;97386.69;;;8.14;99.35
29907;BME280;16776;50.958;10.994;2024-03-23T03:58:53;97384.06;;;8.15;98.21
29907;BME280;16776;50.958;10.994;2024-03-23T04:01:18;97377.19;;;8.17;98.46
29907;BME280;16776;50.958;10.994;2024-03-23T04:03:45;97368.59;;;8.18;98.14
29907;BME280;16776;50.958;10.994;2024-03-23T04:06:18;97357.19;;;8.25;99.62
29907;BME280;16776;50.958;10.994;2024-03-23T04:08:45;97350.56;;;8.20;98.94
29907;BME280;16776;50.958;10.994;2024-03-23T04:11:10;97328.31;;;8.20;98.66
29907;BME280;16776;50.958;10.994;2024-03-23T04:13:37;97327.44;;;8.21;98.87
29907;BME280;16776;50.958;10.994;2024-03-23T04:16:03;97311.22;;;8.21;98.13
29907;BME280;16776;50.958;10.994;2024-03-23T04:18:30;97306.13;;;8.19;98.23
29907;BME280;16776;50.958;10.994;2024-03-23T04:20:55;97312.19;;;8.18;98.53
29907;BME280;16776;50.958;10.994;2024-03-23T04:23:24;97324.03;;;8.21;99.26
29907;BME280;16776;50.958;10.994;2024-03-23T04:25:50;97340.44;;;8.17;99.15
29907;BME280;16776;50.958;10.994;2024-03-23T04:28:17;97348.13;;;8.17;98.55
29907;BME280;16776;50.958;10.994;2024-03-23T04:30:43;97334.47;;;8.16;98.51
29907;BME280;16776;50.958;10.994;2024-03-23T04:33:09;97307.16;;;8.15;98.60
29907;BME280;16776;50.958;10.994;2024-03-23T04:35:35;97294.28;;;8.17;99.35
29907;BME280;16776;50.958;10.994;2024-03-23T04:38:02;97283.19;;;8.16;99.12
29907;BME280;16776;50.958;10.994;2024-03-23T04:40:30;97281.41;;;8.18;99.09
29907;BME280;16776;50.958;10.994;2024-03-23T04:42:56;97277.16;;;8.17;99.03
29907;BME280;16776;50.958;10.994;2024-03-23T04:45:23;97270.38;;;8.16;98.95
29907;BME280;16776;50.958;10.994;2024-03-23T04:47:50;97265.22;;;8.16;98.59
29907;BME280;16776;50.958;10.994;2024-03-23T04:50:16;97247.28;;;8.16;99.82
29907;BME280;16776;50.958;10.994;2024-03-23T04:52:43;97240.47;;;8.15;99.70
29907;BME280;16776;50.958;10.994;2024-03-23T04:55:10;97234.50;;;8.15;99.77
29907;BME280;16776;50.958;10.994;2024-03-23T04:57:38;97219.91;;;8.17;99.64
29907;BME280;16776;50.958;10.994;2024-03-23T05:00:06;97208.88;;;8.15;99.25
29907;BME280;16776;50.958;10.994;2024-03-23T05:02:42;97212.38;;;8.12;99.17
29907;BME280;16776;50.958;10.994;2024-03-23T05:05:09;97203.00;;;8.11;99.36
29907;BME280;16776;50.958;10.994;2024-03-23T05:07:34;97206.47;;;8.10;99.45
29907;BME280;16776;50.958;10.994;2024-03-23T05:10:01;97205.72;;;8.07;98.90
29907;BME280;16776;50.958;10.994;2024-03-23T05:12:29;97200.84;;;8.01;99.62
29907;BME280;16776;50.958;10.994;2024-03-23T05:14:57;97193.06;;;8.04;98.94
29907;BME280;16776;50.958;10.994;2024-03-23T05:17:22;97183.00;;;7.99;99.34
29907;BME280;16776;50.958;10.994;2024-03-23T05:19:49;97180.47;;;7.98;99.31
29907;BME280;16776;50.958;10.994;2024-03-23T05:22:14;97164.31;;;7.96;100.00
29907;BME280;16776;50.958;10.994;2024-03-23T05:24:41;97149.06;;;7.93;99.95
29907;BME280;16776;50.958;10.994;2024-03-23T05:27:07;97152.44;;;7.93;99.33
29907;BME280;16776;50.958;10.994;2024-03-23T05:29:33;97143.94;;;7.93;99.43
29907;BME280;16776;50.958;10.994;2024-03-23T05:32:00;97139.56;;;7.95;99.54
29907;BME280;16776;50.958;10.994;2024-03-23T05:34:27;97138.88;;;7.91;99.89
29907;BME280;16776;50.958;10.994;2024-03-23T05:36:54;97135.47;;;7.91;99.26
29907;BME280;16776;50.958;10.994;2024-03-23T05:39:20;97140.66;;;7.89;100.00
29907;BME280;16776;50.958;10.994;2024-03-23T05:41:47;97144.94;;;7.89;99.88
29907;BME280;16776;50.958;10.994;2024-03-23T05:44:14;97146.75;;;7.87;99.11
29907;BME280;16776;50.958;10.994;2024-03-23T05:46:40;97137.31;;;7.87;99.81
29907;BME280;16776;50.958;10.994;2024-03-23T05:49:08;97126.16;;;7.88;99.80
29907;BME280;16776;50.958;10.994;2024-03-23T05:51:34;97122.91;;;7.84;100.00
29907;BME280;16776;50.958;10.994;2024-03-23T05:54:01;97121.19;;;7.85;100.00
29907;BME280;16776;50.958;10.994;2024-03-23T05:56:26;97119.44;;;7.85;100.00
29907;BME280;16776;50.958;10.994;2024-03-23T05:58:53;97113.50;;;7.85;100.00
29907;BME280;16776;50.958;10.994;2024-03-23T06:01:18;97128.88;;;7.85;100.00
29907;BME280;16776;50.958;10.994;2024-03-23T06:03:45;97124.56;;;7.85;100.00
29907;BME280;16776;50.958;10.994;2024-03-23T06:06:15;97142.31;;;7.90;99.37
29907;BME280;16776;50.958;10.994;2024-03-23T06:08:41;97145.97;;;7.84;100.00
29907;BME280;16776;50.958;10.994;2024-03-23T06:11:07;97129.81;;;7.82;100.00
29907;BME280;16776;50.958;10.994;2024-03-23T06:13:33;97128.09;;;7.83;100.00
29907;BME280;16776;50.958;10.994;2024-03-23T06:16:00;97169.97;;;7.82;100.00
29907;BME280;16776;50.958;10.994;2024-03-23T06:18:26;97179.47;;;7.80;99.66
29907;BME280;16776;50.958;10.994;2024-03-23T06:20:53;97186.38;;;7.78;99.74
29907;BME280;16776;50.958;10.994;2024-03-23T06:23:21;97176.47;;;7.69;99.85
29907;BME280;16776;50.958;10.994;2024-03-23T06:25:46;97197.75;;;7.71;99.43
29907;BME280;16776;50.958;10.994;2024-03-23T06:28:13;97188.56;;;7.65;99.56
29907;BME280;16776;50.958;10.994;2024-03-23T06:30:39;97193.09;;;7.59;99.84
29907;BME280;16776;50.958;10.994;2024-03-23T06:33:06;97193.31;;;7.53;99.81
29907;BME280;16776;50.958;10.994;2024-03-23T06:35:31;97190.94;;;7.48;99.43
29907;BME280;16776;50.958;10.994;2024-03-23T06:37:58;97198.00;;;7.41;98.87
29907;BME280;16776;50.958;10.994;2024-03-23T06:40:25;97200.69;;;7.38;99.31
29907;BME280;16776;50.958;10.994;2024-03-23T06:42:51;97204.53;;;7.27;99.71
29907;BME280;16776;50.958;10.994;2024-03-23T06:45:17;97206.47;;;7.20;99.13
29907;BME280;16776;50.958;10.994;2024-03-23T06:47:48;97200.78;;;7.12;99.25
29907;BME280;16776;50.958;10.994;2024-03-23T06:50:14;97190.81;;;7.04;99.12
29907;BME280;16776;50.958;10.994;2024-03-23T06:52:40;97190.19;;;6.98;99.69
29907;BME280;16776;50.958;10.994;2024-03-23T06:55:06;97173.38;;;6.91;100.00
29907;BME280;16776;50.958;10.994;2024-03-23T06:57:35;97174.34;;;6.88;99.02
29907;BME280;16776;50.958;10.994;2024-03-23T07:00:00;97207.03;;;6.80;99.71
29907;BME280;16776;50.958;10.994;2024-03-23T07:02:27;97229.38;;;6.75;99.97
29907;BME280;16776;50.958;10.994;2024-03-23T07:04:53;97244.06;;;6.69;100.00
29907;BME280;16776;50.958;10.994;2024-03-23T07:07:19;97264.72;;;6.62;100.00
29907;BME280;16776;50.958;10.994;2024-03-23T07:09:45;97274.19;;;6.59;99.94
29907;BME280;16776;50.958;10.994;2024-03-23T07:12:12;97292.38;;;6.51;100.00
29907;BME280;16776;50.958;10.994;2024-03-23T07:14:39;97316.28;;;6.50;100.00
29907;BME280;16776;50.958;10.994;2024-03-23T07:17:05;97333.53;;;6.44;100.00
29907;BME280;16776;50.958;10.994;2024-03-23T07:19:31;97335.31;;;6.40;99.88
29907;BME280;16776;50.958;10.994;2024-03-23T07:21:57;97329.53;;;6.35;99.79
29907;BME280;16776;50.958;10.994;2024-03-23T07:24:23;97341.66;;;6.29;99.28
29907;BME280;16776;50.958;10.994;2024-03-23T07:26:49;97348.63;;;6.23;99.68
29907;BME280;16776;50.958;10.994;2024-03-23T07:29:16;97359.88;;;6.18;99.86
29907;BME280;16776;50.958;10.994;2024-03-23T07:31:44;97364.19;;;6.16;99.46
29907;BME280;16776;50.958;10.994;2024-03-23T07:34:09;97364.38;;;6.10;99.71
29907;BME280;16776;50.958;10.994;2024-03-23T07:36:36;97373.00;;;6.06;99.59
29907;BME280;16776;50.958;10.994;2024-03-23T07:39:02;97389.31;;;6.02;99.48
29907;BME280;16776;50.958;10.994;2024-03-23T07:41:29;97403.06;;;5.98;99.26
29907;BME280;16776;50.958;10.994;2024-03-23T07:43:55;97407.47;;;5.93;99.25
29907;BME280;16776;50.958;10.994;2024-03-23T07:46:22;97417.72;;;5.91;98.59
29907;BME280;16776;50.958;10.994;2024-03-23T07:48:49;97423.66;;;5.92;100.00
29907;BME280;16776;50.958;10.994;2024-03-23T07:51:17;97431.97;;;6.00;100.00
29907;BME280;16776;50.958;10.994;2024-03-23T07:53:44;97445.09;;;6.17;100.00
29907;BME280;16776;50.958;10.994;2024-03-23T07:56:11;97448.91;;;6.33;100.00
29907;BME280;16776;50.958;10.994;2024-03-23T07:58:37;97446.94;;;6.43;99.93
29907;BME280;16776;50.958;10.994;2024-03-23T08:01:05;97446.81;;;6.46;99.00
29907;BME280;16776;50.958;10.994;2024-03-23T08:03:31;97440.94;;;6.44;98.25
29907;BME280;16776;50.958;10.994;2024-03-23T08:06:06;97457.88;;;6.46;97.85
29907;BME280;16776;50.958;10.994;2024-03-23T08:08:32;97469.34;;;6.33;97.55
29907;BME280;16776;50.958;10.994;2024-03-23T08:10:58;97479.84;;;6.24;97.16
29907;BME280;16776;50.958;10.994;2024-03-23T08:13:24;97494.56;;;6.16;97.03
29907;BME280;16776;50.958;10.994;2024-03-23T08:15:51;97496.56;;;6.05;97.20
29907;BME280;16776;50.958;10.994;2024-03-23T08:18:16;97505.34;;;5.95;96.76
29907;BME280;16776;50.958;10.994;2024-03-23T08:20:43;97514.13;;;5.84;97.15
29907;BME280;16776;50.958;10.994;2024-03-23T08:23:10;97516.00;;;5.78;97.47
29907;BME280;16776;50.958;10.994;2024-03-23T08:25:36;97523.91;;;5.69;97.21
29907;BME280;16776;50.958;10.994;2024-03-23T08:28:02;97532.53;;;5.63;97.35
29907;BME280;16776;50.958;10.994;2024-03-23T08:30:28;97543.75;;;5.58;97.17
29907;BME280;16776;50.958;10.994;2024-03-23T08:32:54;97542.19;;;5.52;97.75
29907;BME280;16776;50.958;10.994;2024-03-23T08:35:21;97561.00;;;5.48;97.48
29907;BME280;16776;50.958;10.994;2024-03-23T08:37:46;97565.41;;;5.41;97.05
29907;BME280;16776;50.958;10.994;2024-03-23T08:40:14;97579.09;;;5.37;97.41
29907;BME280;16776;50.958;10.994;2024-03-23T08:42:40;97583.56;;;5.29;97.48
29907;BME280;16776;50.958;10.994;2024-03-23T08:45:07;97590.44;;;5.26;97.12
29907;BME280;16776;50.958;10.994;2024-03-23T08:47:34;97599.03;;;5.23;97.15
29907;BME280;16776;50.958;10.994;2024-03-23T08:50:01;97587.22;;;5.16;97.43
29907;BME280;16776;50.958;10.994;2024-03-23T08:52:26;97591.53;;;5.13;97.51
29907;BME280;16776;50.958;10.994;2024-03-23T08:54:54;97602.69;;;5.09;97.61
29907;BME280;16776;50.958;10.994;2024-03-23T08:57:20;97604.44;;;5.06;97.79
29907;BME280;16776;50.958;10.994;2024-03-23T08:59:47;97611.34;;;5.03;98.12
29907;BME280;16776;50.958;10.994;2024-03-23T09:02:13;97611.34;;;5.01;97.99
29907;BME280;16776;50.958;10.994;2024-03-23T09:04:39;97624.13;;;5.00;97.62
29907;BME280;16776;50.958;10.994;2024-03-23T09:07:05;97620.75;;;4.99;98.00
29907;BME280;16776;50.958;10.994;2024-03-23T09:09:31;97624.13;;;5.00;97.98
29907;BME280;16776;50.958;10.994;2024-03-23T09:11:57;97633.47;;;5.01;98.22
29907;BME280;16776;50.958;10.994;2024-03-23T09:14:25;97634.28;;;5.04;98.42
29907;BME280;16776;50.958;10.994;2024-03-23T09:16:50;97643.63;;;5.04;98.44
29907;BME280;16776;50.958;10.994;2024-03-23T09:19:17;97639.31;;;5.06;98.40
29907;BME280;16776;50.958;10.994;2024-03-23T09:21:43;97639.28;;;5.07;98.58
29907;BME280;16776;50.958;10.994;2024-03-23T09:24:09;97640.13;;;5.08;98.55
29907;BME280;16776;50.958;10.994;2024-03-23T09:26:35;97641.81;;;5.11;98.44
29907;BME280;16776;50.958;10.994;2024-03-23T09:29:01;97635.78;;;5.13;97.92
29907;BME280;16776;50.958;10.994;2024-03-23T09:31:28;97654.47;;;5.15;98.43
29907;BME280;16776;50.958;10.994;2024-03-23T09:33:56;97652.75;;;5.16;98.40
29907;BME280;16776;50.958;10.994;2024-03-23T09:36:22;97651.84;;;5.20;98.95
29907;BME280;16776;50.958;10.994;2024-03-23T09:38:49;97658.59;;;5.22;98.61
29907;BME280;16776;50.958;10.994;2024-03-23T09:41:14;97662.78;;;5.25;98.79
29907;BME280;16776;50.958;10.994;2024-03-23T09:43:41;97660.19;;;5.28;99.12
29907;BME280;16776;50.958;10.994;2024-03-23T09:46:07;97667.72;;;5.32;98.56
29907;BME280;16776;50.958;10.994;2024-03-23T09:48:36;97673.63;;;5.36;98.83
29907;BME280;16776;50.958;10.994;2024-03-23T09:51:02;97618.16;;;5.02;98.86
29907;BME280;16776;50.958;10.994;2024-03-23T09:53:29;97665.03;;;5.40;98.59
29907;BME280;16776;50.958;10.994;2024-03-23T09:55:55;97677.75;;;5.43;98.83
29907;BME280;16776;50.958;10.994;2024-03-23T09:58:23;97683.59;;;5.48;99.37
29907;BME280;16776;50.958;10.994;2024-03-23T10:00:49;97685.25;;;5.49;99.08
29907;BME280;16776;50.958;10.994;2024-03-23T10:03:15;97686.00;;;5.54;98.92
29907;BME280;16776;50.958;10.994;2024-03-23T10:05:42;97689.25;;;5.61;99.55
29907;BME280;16776;50.958;10.994;2024-03-23T10:08:28;97693.22;;;5.74;99.24
29907;BME280;16776;50.958;10.994;2024-03-23T10:10:54;97704.31;;;5.73;99.22
29907;BME280;16776;50.958;10.994;2024-03-23T10:13:24;97672.81;;;5.72;99.73
29907;BME280;16776;50.958;10.994;2024-03-23T10:15:55;97701.19;;;5.99;100.00
29907;BME280;16776;50.958;10.994;2024-03-23T10:18:22;97696.66;;;6.08;100.00
29907;BME280;16776;50.958;10.994;2024-03-23T10:20:51;97689.50;;;6.24;100.00
29907;BME280;16776;50.958;10.994;2024-03-23T10:23:18;97693.47;;;6.36;100.00
29907;BME280;16776;50.958;10.994;2024-03-23T10:25:44;97680.59;;;6.39;100.00
29907;BME280;16776;50.958;10.994;2024-03-23T10:28:11;97699.50;;;6.65;100.00
29907;BME280;16776;50.958;10.994;2024-03-23T10:30:37;97701.75;;;6.79;100.00
29907;BME280;16776;50.958;10.994;2024-03-23T10:33:07;97696.22;;;6.94;99.75
29907;BME280;16776;50.958;10.994;2024-03-23T10:35:33;97698.59;;;7.02;99.92
29907;BME280;16776;50.958;10.994;2024-03-23T10:38:02;97693.91;;;7.16;99.84
29907;BME280;16776;50.958;10.994;2024-03-23T10:40:29;97698.75;;;7.27;100.00
29907;BME280;16776;50.958;10.994;2024-03-23T10:42:58;97693.13;;;7.43;100.00
29907;BME280;16776;50.958;10.994;2024-03-23T10:45:24;97699.53;;;7.58;100.00
29907;BME280;16776;50.958;10.994;2024-03-23T10:47:51;97707.56;;;7.75;100.00
29907;BME280;16776;50.958;10.994;2024-03-23T10:50:17;97697.75;;;7.88;98.71
29907;BME280;16776;50.958;10.994;2024-03-23T10:52:46;97703.31;;;8.02;98.73
29907;BME280;16776;50.958;10.994;2024-03-23T10:55:15;97697.09;;;8.09;99.11
29907;BME280;16776;50.958;10.994;2024-03-23T10:57:45;97701.22;;;8.15;97.72
29907;BME280;16776;50.958;10.994;2024-03-23T11:00:14;97708.88;;;8.16;97.83
29907;BME280;16776;50.958;10.994;2024-03-23T11:02:41;97700.31;;;8.17;97.48
29907;BME280;16776;50.958;10.994;2024-03-23T11:05:28;97706.72;;;8.31;97.90
29907;BME280;16776;50.958;10.994;2024-03-23T11:07:54;97700.94;;;8.24;97.31
29907;BME280;16776;50.958;10.994;2024-03-23T11:10:29;97682.69;;;8.33;97.56
29907;BME280;16776;50.958;10.994;2024-03-23T11:12:56;97699.94;;;8.28;96.31
29907;BME280;16776;50.958;10.994;2024-03-23T11:15:22;97693.09;;;8.29;96.21
29907;BME280;16776;50.958;10.994;2024-03-23T11:18:04;97669.31;;;8.23;95.90
29907;BME280;16776;50.958;10.994;2024-03-23T11:20:33;97692.34;;;8.25;95.67
29907;BME280;16776;50.958;10.994;2024-03-23T11:23:00;97688.38;;;8.16;96.01
29907;BME280;16776;50.958;10.994;2024-03-23T11:25:29;97689.16;;;8.18;95.96
29907;BME280;16776;50.958;10.994;2024-03-23T11:27:57;97692.69;;;8.14;95.53
29907;BME280;16776;50.958;10.994;2024-03-23T11:30:24;97689.38;;;8.11;95.63
29907;BME280;16776;50.958;10.994;2024-03-23T11:32:52;97688.63;;;8.07;96.48
29907;BME280;16776;50.958;10.994;2024-03-23T11:35:28;97675.25;;;7.98;95.35
29907;BME280;16776;50.958;10.994;2024-03-23T11:38:04;97692.16;;;8.03;94.85
29907;BME280;16776;50.958;10.994;2024-03-23T11:40:31;97695.72;;;7.99;95.60
29907;BME280;16776;50.958;10.994;2024-03-23T11:42:58;97691.97;;;7.81;95.24
29907;BME280;16776;50.958;10.994;2024-03-23T11:45:24;97701.59;;;7.75;94.70
29907;BME280;16776;50.958;10.994;2024-03-23T11:48:04;97699.84;;;7.75;95.16
29907;BME280;16776;50.958;10.994;2024-03-23T11:50:30;97702.06;;;7.60;94.99
29907;BME280;16776;50.958;10.994;2024-03-23T11:53:07;97694.31;;;7.61;95.43
29907;BME280;16776;50.958;10.994;2024-03-23T11:55:41;97695.31;;;7.56;94.45
29907;BME280;16776;50.958;10.994;2024-03-23T11:58:08;97695.69;;;7.43;95.73
29907;BME280;16776;50.958;10.994;2024-03-23T12:00:34;97695.88;;;7.37;95.20
29907;BME280;16776;50.958;10.994;2024-03-23T12:03:01;97687.38;;;7.35;96.06
29907;BME280;16776;50.958;10.994;2024-03-23T12:05:26;97693.41;;;7.34;96.58
29907;BME280;16776;50.958;10.994;2024-03-23T12:07:53;97692.44;;;7.38;96.51
29907;BME280;16776;50.958;10.994;2024-03-23T12:10:19;97681.16;;;7.44;97.10
29907;BME280;16776;50.958;10.994;2024-03-23T12:13:00;97684.06;;;7.61;98.81
29907;BME280;16776;50.958;10.994;2024-03-23T12:15:27;97663.28;;;7.70;98.37
29907;BME280;16776;50.958;10.994;2024-03-23T12:18:06;97668.44;;;7.97;97.02
29907;BME280;16776;50.958;10.994;2024-03-23T12:20:31;97663.81;;;8.08;96.72
29907;BME280;16776;50.958;10.994;2024-03-23T12:23:05;97654.63;;;8.29;96.85
29907;BME280;16776;50.958;10.994;2024-03-23T12:25:31;97645.50;;;8.45;96.71
29907;BME280;16776;50.958;10.994;2024-03-23T12:28:00;97642.25;;;8.64;95.71
29907;BME280;16776;50.958;10.994;2024-03-23T12:30:25;97641.84;;;8.77;96.13
29907;BME280;16776;50.958;10.994;2024-03-23T12:32:52;97637.91;;;8.91;95.00
29907;BME280;16776;50.958;10.994;2024-03-23T12:35:17;97596.47;;;8.77;94.58
29907;BME280;16776;50.958;10.994;2024-03-23T12:37:44;97631.75;;;9.19;94.77
29907;BME280;16776;50.958;10.994;2024-03-23T12:40:10;97636.44;;;9.31;94.12
29907;BME280;16776;50.958;10.994;2024-03-23T12:42:37;97633.63;;;9.38;93.93
29907;BME280;16776;50.958;10.994;2024-03-23T12:45:05;97628.84;;;9.51;94.00
29907;BME280;16776;50.958;10.994;2024-03-23T12:47:31;97621.69;;;9.59;93.92
29907;BME280;16776;50.958;10.994;2024-03-23T12:49:57;97615.28;;;9.69;93.36
29907;BME280;16776;50.958;10.994;2024-03-23T12:52:23;97619.16;;;9.79;92.74
29907;BME280;16776;50.958;10.994;2024-03-23T12:54:53;97610.19;;;9.90;91.84
29907;BME280;16776;50.958;10.994;2024-03-23T12:57:21;97618.50;;;9.96;91.61
29907;BME280;16776;50.958;10.994;2024-03-23T12:59:47;97621.66;;;10.03;90.14
29907;BME280;16776;50.958;10.994;2024-03-23T13:02:18;97625.72;;;10.08;90.62
29907;BME280;16776;50.958;10.994;2024-03-23T13:04:45;97618.91;;;10.07;90.48
29907;BME280;16776;50.958;10.994;2024-03-23T13:07:11;97611.06;;;10.10;90.33
29907;BME280;16776;50.958;10.994;2024-03-23T13:09:38;97605.72;;;10.15;89.98
29907;BME280;16776;50.958;10.994;2024-03-23T13:12:05;97604.84;;;10.16;90.13
29907;BME280;16776;50.958;10.994;2024-03-23T13:14:31;97601.28;;;10.18;89.37
29907;BME280;16776;50.958;10.994;2024-03-23T13:16:57;97588.34;;;10.20;89.31
29907;BME280;16776;50.958;10.994;2024-03-23T13:19:24;97598.44;;;10.24;89.46
29907;BME280;16776;50.958;10.994;2024-03-23T13:21:53;97580.19;;;10.10;89.10
29907;BME280;16776;50.958;10.994;2024-03-23T13:24:21;97608.44;;;10.32;88.57
29907;BME280;16776;50.958;10.994;2024-03-23T13:26:49;97608.56;;;10.29;88.70
29907;BME280;16776;50.958;10.994;2024-03-23T13:29:16;97606.91;;;10.28;87.91
29907;BME280;16776;50.958;10.994;2024-03-23T13:31:42;97607.78;;;10.27;87.92
29907;BME280;16776;50.958;10.994;2024-03-23T13:34:08;97596.84;;;10.22;87.82
29907;BME280;16776;50.958;10.994;2024-03-23T13:36:35;97604.56;;;10.22;88.08
29907;BME280;16776;50.958;10.994;2024-03-23T13:39:03;97596.84;;;10.22;87.45
29907;BME280;16776;50.958;10.994;2024-03-23T13:41:31;97607.16;;;10.22;87.37
29907;BME280;16776;50.958;10.994;2024-03-23T13:43:58;97615.75;;;10.21;86.79
29907;BME280;16776;50.958;10.994;2024-03-23T13:46:24;97609.88;;;10.17;86.07
29907;BME280;16776;50.958;10.994;2024-03-23T13:48:50;97627.31;;;10.11;85.41
29907;BME280;16776;50.958;10.994;2024-03-23T13:51:23;97609.31;;;10.11;86.71